Meteo Giornale » Osservazioni meteo Italia » Napoli-Capodichino

ore: 14:50 - Osservazioni Meteo Napoli-Capodichino
Lat. 40° 51' N Lon. 14° 18' E Alt. 88 metri s.l.m.

poco_nuvoloso Europe/Rome

35 °C

Poco Nuvoloso

Temp. 24 Ore

24 °C

35 °C

Nord-Est

13 Km/h

Dew point 15 °C

Umidità 30 %

Visibilità  10 Km

Il sole sorge alle ore 05:31

Il sole tramonta alle ore 20:40

Data e Ora Cielo e Fenomeni T °C DP °C Um. % Pres. hPa Vis. km Vento km/h
Oggi h: 14:50 poco_nuvoloso Poco Nuvoloso 35 15 30 1016 10 NE 13
Oggi h: 14:20 poco_nuvoloso Poco Nuvoloso 35 16 32 1016 10 N/NE 13
Oggi h: 13:50 poco_nuvoloso Poco Nuvoloso 35 18 36 1016 10 E/NE 9.3
Oggi h: 13:20 poco_nuvoloso Poco Nuvoloso 34 16 34 1017 10 N 13
Oggi h: 12:50 poco_nuvoloso Poco Nuvoloso 35 18 36 1017 10 N 9.3
Oggi h: 12:20 sereno Sereno 34 18 38 1017 10 NE 13
Oggi h: 11:50 sereno Sereno 34 18 38 1017 10 N 7.4
Oggi h: 11:20 sereno Sereno 33 18 41 1018 10 E/NE 14.8
Oggi h: 10:50 sereno Sereno 32 17 40 1018 10 N 7.4
Oggi h: 10:20 sereno Sereno 32 17 40 1018 10 N 3.7
Oggi h: 09:50 sereno Sereno 31 17 43 1018 10 N/NO 7.4
Oggi h: 09:20 sereno Sereno 30 16 42 1018 10 N/NE 9.3
Oggi h: 08:50 sereno Sereno 30 15 40 1018 10 N 11.1
Oggi h: 08:20 sereno Sereno 28 16 48 1018 10 E/NE 9.3
Oggi h: 07:50 sereno Sereno 29 15 42 1018 10 N 11.1
Oggi h: 07:20 sereno Sereno 28 15 45 1018 10 N/NE 11.1
Oggi h: 06:50 sereno Sereno 27 15 47 1018 10 N/NE 11.1
Oggi h: 05:50 sereno Sereno 24 15 57 1018 10 N/NO 9.3
Oggi h: 05:20 sereno Sereno 26 14 47 1018 10 N 3.7
Oggi h: 04:50 sereno Sereno 27 15 47 1018 10 N 7.4
Oggi h: 04:20 sereno Sereno 27 15 47 1018 10 N/NO 9.3
Oggi h: 03:50 sereno Sereno 27 15 47 1018 10 N 5.5
Oggi h: 02:50 sereno Sereno 27 15 47 1019 10 N 5.5
Oggi h: 02:20 sereno Sereno 27 15 47 1019 10 N/NE 9.3
Oggi h: 01:50 sereno Sereno 27 15 47 1019 10 N 3.7
Oggi h: 01:20 sereno Sereno 28 15 45 1019 10 E/SE 7.4
Oggi h: 00:50 sereno Sereno 28 15 45 1019 10 E 9.3
Oggi h: 00:20 sereno Sereno 28 15 45 1019 10 N/NE 7.4
Ieri h: 23:50 sereno Sereno 28 15 45 1019 10 N 5.5
Ieri h: 23:20 sereno Sereno 28 15 45 1019 10 E/NE 13
Ieri h: 22:50 sereno Sereno 28 15 45 1019 10 E/NE 14.8
Ieri h: 22:20 sereno Sereno 28 15 45 1019 10 E/NE 13
Ieri h: 21:50 sereno Sereno 29 16 45 1019 10 NE 11.1
Ieri h: 21:20 sereno Sereno 29 15 42 1018 10 E/NE 14.8
Ieri h: 20:50 sereno Sereno 30 16 42 1018 10 E/NE 13
Ieri h: 19:50 sereno Sereno 31 16 40 1018 10 E/NE 25.9
Ieri h: 19:20 sereno Sereno 32 16 38 1018 10 E 24
Ieri h: 18:50 sereno Sereno 32 16 38 1018 10 E/NE 24
Ieri h: 17:50 poco_nuvoloso Poco Nuvoloso 34 17 36 1018 10 E/NE 22.2
Ieri h: 17:20 poco_nuvoloso Poco Nuvoloso 33 17 38 1018 10 E/NE 24
Ieri h: 16:50 poco_nuvoloso Poco Nuvoloso 34 18 38 1018 10 E 18.5
Ieri h: 16:20 nuvoloso Nuvoloso 34 18 38 1018 10 E 20.3
Ieri h: 15:50 nuvoloso Nuvoloso 33 17 38 1018 10 E/NE 16.7